sensor_id;sensor_type;location;lat;lon;timestamp;P1;durP1;ratioP1;P2;durP2;ratioP2
72728;SDS011;60843;52.062;4.508;2022-07-01T00:01:22;35.42;;;17.58;;
72728;SDS011;60843;52.062;4.508;2022-07-01T00:03:48;30.13;;;16.48;;
72728;SDS011;60843;52.062;4.508;2022-07-01T00:06:16;38.30;;;18.25;;
72728;SDS011;60843;52.062;4.508;2022-07-01T00:08:42;34.55;;;18.02;;
72728;SDS011;60843;52.062;4.508;2022-07-01T00:11:08;36.70;;;18.27;;
72728;SDS011;60843;52.062;4.508;2022-07-01T00:13:33;34.83;;;16.90;;
72728;SDS011;60843;52.062;4.508;2022-07-01T00:16:00;36.33;;;16.93;;
72728;SDS011;60843;52.062;4.508;2022-07-01T00:18:25;37.53;;;18.70;;
72728;SDS011;60843;52.062;4.508;2022-07-01T00:20:50;40.17;;;18.98;;
72728;SDS011;60843;52.062;4.508;2022-07-01T00:23:16;40.78;;;18.90;;
72728;SDS011;60843;52.062;4.508;2022-07-01T00:25:43;35.08;;;16.83;;
72728;SDS011;60843;52.062;4.508;2022-07-01T00:28:09;40.15;;;18.52;;
72728;SDS011;60843;52.062;4.508;2022-07-01T00:30:34;39.28;;;18.92;;
72728;SDS011;60843;52.062;4.508;2022-07-01T00:33:00;37.90;;;19.05;;
72728;SDS011;60843;52.062;4.508;2022-07-01T00:35:25;38.28;;;17.25;;
72728;SDS011;60843;52.062;4.508;2022-07-01T00:37:51;42.13;;;18.93;;
72728;SDS011;60843;52.062;4.508;2022-07-01T00:40:16;34.42;;;17.65;;
72728;SDS011;60843;52.062;4.508;2022-07-01T00:42:41;40.27;;;16.93;;
72728;SDS011;60843;52.062;4.508;2022-07-01T00:45:08;38.25;;;17.73;;
72728;SDS011;60843;52.062;4.508;2022-07-01T00:47:35;33.08;;;16.45;;
72728;SDS011;60843;52.062;4.508;2022-07-01T00:50:02;35.80;;;17.35;;
72728;SDS011;60843;52.062;4.508;2022-07-01T00:52:32;34.88;;;17.20;;
72728;SDS011;60843;52.062;4.508;2022-07-01T00:54:59;38.00;;;17.60;;
72728;SDS011;60843;52.062;4.508;2022-07-01T00:57:31;33.13;;;16.60;;
72728;SDS011;60843;52.062;4.508;2022-07-01T00:59:58;35.70;;;16.80;;
72728;SDS011;60843;52.062;4.508;2022-07-01T01:02:24;35.40;;;16.25;;
72728;SDS011;60843;52.062;4.508;2022-07-01T01:04:49;34.78;;;16.45;;
72728;SDS011;60843;52.062;4.508;2022-07-01T01:09:43;29.52;;;15.18;;
72728;SDS011;60843;52.062;4.508;2022-07-01T01:12:09;32.10;;;15.18;;
72728;SDS011;60843;52.062;4.508;2022-07-01T01:14:43;34.38;;;15.77;;
72728;SDS011;60843;52.062;4.508;2022-07-01T01:17:09;34.40;;;14.88;;
72728;SDS011;60843;52.062;4.508;2022-07-01T01:19:35;36.60;;;17.02;;
72728;SDS011;60843;52.062;4.508;2022-07-01T01:22:01;35.70;;;16.42;;
72728;SDS011;60843;52.062;4.508;2022-07-01T01:24:26;36.13;;;16.70;;
72728;SDS011;60843;52.062;4.508;2022-07-01T01:26:52;32.97;;;15.23;;
72728;SDS011;60843;52.062;4.508;2022-07-01T01:29:17;36.50;;;17.17;;
72728;SDS011;60843;52.062;4.508;2022-07-01T01:31:45;38.10;;;15.68;;
72728;SDS011;60843;52.062;4.508;2022-07-01T01:34:11;34.20;;;15.95;;
72728;SDS011;60843;52.062;4.508;2022-07-01T01:36:37;37.05;;;15.70;;
72728;SDS011;60843;52.062;4.508;2022-07-01T01:39:02;37.28;;;15.52;;
72728;SDS011;60843;52.062;4.508;2022-07-01T01:41:54;33.40;;;14.15;;
72728;SDS011;60843;52.062;4.508;2022-07-01T01:44:20;34.13;;;15.02;;
72728;SDS011;60843;52.062;4.508;2022-07-01T01:46:45;33.40;;;13.13;;
72728;SDS011;60843;52.062;4.508;2022-07-01T01:49:11;30.10;;;12.93;;
72728;SDS011;60843;52.062;4.508;2022-07-01T01:51:36;29.23;;;13.35;;
72728;SDS011;60843;52.062;4.508;2022-07-01T01:54:02;27.85;;;12.48;;
72728;SDS011;60843;52.062;4.508;2022-07-01T01:56:27;26.27;;;12.90;;
72728;SDS011;60843;52.062;4.508;2022-07-01T01:58:53;26.93;;;12.53;;
72728;SDS011;60843;52.062;4.508;2022-07-01T02:01:19;26.10;;;10.83;;
72728;SDS011;60843;52.062;4.508;2022-07-01T02:03:45;20.02;;;10.23;;
72728;SDS011;60843;52.062;4.508;2022-07-01T02:06:12;22.42;;;9.68;;
72728;SDS011;60843;52.062;4.508;2022-07-01T02:08:38;21.25;;;10.13;;
72728;SDS011;60843;52.062;4.508;2022-07-01T02:11:05;16.85;;;8.45;;
72728;SDS011;60843;52.062;4.508;2022-07-01T02:13:31;20.92;;;9.60;;
72728;SDS011;60843;52.062;4.508;2022-07-01T02:15:57;14.80;;;8.20;;
72728;SDS011;60843;52.062;4.508;2022-07-01T02:18:23;17.50;;;8.52;;
72728;SDS011;60843;52.062;4.508;2022-07-01T02:20:48;19.33;;;8.05;;
72728;SDS011;60843;52.062;4.508;2022-07-01T02:23:14;15.68;;;7.78;;
72728;SDS011;60843;52.062;4.508;2022-07-01T02:25:40;15.60;;;8.13;;
72728;SDS011;60843;52.062;4.508;2022-07-01T02:28:06;16.45;;;6.65;;
72728;SDS011;60843;52.062;4.508;2022-07-01T02:30:32;14.43;;;5.85;;
72728;SDS011;60843;52.062;4.508;2022-07-01T02:33:01;14.20;;;7.63;;
72728;SDS011;60843;52.062;4.508;2022-07-01T02:35:33;12.15;;;6.70;;
72728;SDS011;60843;52.062;4.508;2022-07-01T02:37:59;14.13;;;6.05;;
72728;SDS011;60843;52.062;4.508;2022-07-01T02:40:25;18.35;;;7.40;;
72728;SDS011;60843;52.062;4.508;2022-07-01T02:42:50;13.80;;;6.78;;
72728;SDS011;60843;52.062;4.508;2022-07-01T02:45:16;14.93;;;6.53;;
72728;SDS011;60843;52.062;4.508;2022-07-01T02:47:41;19.23;;;6.70;;
72728;SDS011;60843;52.062;4.508;2022-07-01T02:50:08;13.15;;;5.78;;
72728;SDS011;60843;52.062;4.508;2022-07-01T02:52:38;17.75;;;5.97;;
72728;SDS011;60843;52.062;4.508;2022-07-01T02:55:04;10.95;;;5.30;;
72728;SDS011;60843;52.062;4.508;2022-07-01T02:57:31;13.85;;;5.60;;
72728;SDS011;60843;52.062;4.508;2022-07-01T02:59:56;15.10;;;5.85;;
72728;SDS011;60843;52.062;4.508;2022-07-01T03:02:22;12.05;;;5.68;;
72728;SDS011;60843;52.062;4.508;2022-07-01T03:04:48;10.75;;;5.70;;
72728;SDS011;60843;52.062;4.508;2022-07-01T03:07:14;12.55;;;5.38;;
72728;SDS011;60843;52.062;4.508;2022-07-01T03:09:41;12.25;;;5.75;;
72728;SDS011;60843;52.062;4.508;2022-07-01T03:12:07;10.50;;;5.43;;
72728;SDS011;60843;52.062;4.508;2022-07-01T03:17:17;12.57;;;5.70;;
72728;SDS011;60843;52.062;4.508;2022-07-01T03:19:44;8.95;;;5.00;;
72728;SDS011;60843;52.062;4.508;2022-07-01T03:22:10;9.70;;;5.32;;
72728;SDS011;60843;52.062;4.508;2022-07-01T03:24:35;11.98;;;5.25;;
72728;SDS011;60843;52.062;4.508;2022-07-01T03:27:01;14.37;;;5.40;;
72728;SDS011;60843;52.062;4.508;2022-07-01T03:29:26;8.65;;;5.63;;
72728;SDS011;60843;52.062;4.508;2022-07-01T03:31:51;13.32;;;6.07;;
72728;SDS011;60843;52.062;4.508;2022-07-01T03:34:17;11.35;;;5.68;;
72728;SDS011;60843;52.062;4.508;2022-07-01T03:36:42;13.17;;;6.17;;
72728;SDS011;60843;52.062;4.508;2022-07-01T03:39:08;11.45;;;5.85;;
72728;SDS011;60843;52.062;4.508;2022-07-01T03:41:33;12.95;;;6.38;;
72728;SDS011;60843;52.062;4.508;2022-07-01T03:43:59;16.58;;;6.40;;
72728;SDS011;60843;52.062;4.508;2022-07-01T03:46:24;17.23;;;7.03;;
72728;SDS011;60843;52.062;4.508;2022-07-01T03:48:50;13.60;;;6.65;;
72728;SDS011;60843;52.062;4.508;2022-07-01T03:51:15;17.02;;;7.15;;
72728;SDS011;60843;52.062;4.508;2022-07-01T03:53:40;14.77;;;6.32;;
72728;SDS011;60843;52.062;4.508;2022-07-01T03:56:25;14.75;;;6.80;;
72728;SDS011;60843;52.062;4.508;2022-07-01T03:58:50;12.20;;;6.30;;
72728;SDS011;60843;52.062;4.508;2022-07-01T04:01:15;17.65;;;6.95;;
72728;SDS011;60843;52.062;4.508;2022-07-01T04:03:41;17.03;;;7.27;;
72728;SDS011;60843;52.062;4.508;2022-07-01T04:06:06;14.63;;;6.70;;
72728;SDS011;60843;52.062;4.508;2022-07-01T04:08:32;14.55;;;5.78;;
72728;SDS011;60843;52.062;4.508;2022-07-01T04:10:57;13.67;;;5.90;;
72728;SDS011;60843;52.062;4.508;2022-07-01T04:13:23;18.33;;;6.40;;
72728;SDS011;60843;52.062;4.508;2022-07-01T04:15:49;14.98;;;6.65;;
72728;SDS011;60843;52.062;4.508;2022-07-01T04:18:14;15.40;;;6.03;;
72728;SDS011;60843;52.062;4.508;2022-07-01T04:20:40;12.52;;;6.53;;
72728;SDS011;60843;52.062;4.508;2022-07-01T04:23:05;13.87;;;6.53;;
72728;SDS011;60843;52.062;4.508;2022-07-01T04:25:31;16.92;;;7.45;;
72728;SDS011;60843;52.062;4.508;2022-07-01T04:27:56;13.65;;;6.13;;
72728;SDS011;60843;52.062;4.508;2022-07-01T04:30:22;12.32;;;6.55;;
72728;SDS011;60843;52.062;4.508;2022-07-01T04:32:47;15.40;;;6.32;;
72728;SDS011;60843;52.062;4.508;2022-07-01T04:35:13;14.97;;;6.70;;
72728;SDS011;60843;52.062;4.508;2022-07-01T04:37:39;14.02;;;6.35;;
72728;SDS011;60843;52.062;4.508;2022-07-01T04:40:06;16.08;;;6.65;;
72728;SDS011;60843;52.062;4.508;2022-07-01T04:42:31;14.48;;;6.20;;
72728;SDS011;60843;52.062;4.508;2022-07-01T04:44:57;15.80;;;6.25;;
72728;SDS011;60843;52.062;4.508;2022-07-01T04:47:22;12.73;;;6.47;;
72728;SDS011;60843;52.062;4.508;2022-07-01T04:49:48;14.27;;;6.28;;
72728;SDS011;60843;52.062;4.508;2022-07-01T04:52:14;12.00;;;5.78;;
72728;SDS011;60843;52.062;4.508;2022-07-01T04:54:40;15.13;;;5.75;;
72728;SDS011;60843;52.062;4.508;2022-07-01T04:59:33;14.87;;;4.70;;
72728;SDS011;60843;52.062;4.508;2022-07-01T05:01:58;11.35;;;5.10;;
72728;SDS011;60843;52.062;4.508;2022-07-01T05:04:24;12.57;;;5.25;;
72728;SDS011;60843;52.062;4.508;2022-07-01T05:06:51;13.55;;;5.28;;
72728;SDS011;60843;52.062;4.508;2022-07-01T05:09:16;11.23;;;5.65;;
72728;SDS011;60843;52.062;4.508;2022-07-01T05:11:42;13.30;;;5.60;;
72728;SDS011;60843;52.062;4.508;2022-07-01T05:14:08;12.00;;;4.80;;
72728;SDS011;60843;52.062;4.508;2022-07-01T05:16:33;18.45;;;5.35;;
72728;SDS011;60843;52.062;4.508;2022-07-01T05:18:59;10.23;;;5.13;;
72728;SDS011;60843;52.062;4.508;2022-07-01T05:21:44;14.55;;;5.78;;
72728;SDS011;60843;52.062;4.508;2022-07-01T05:24:21;11.55;;;4.70;;
72728;SDS011;60843;52.062;4.508;2022-07-01T05:26:47;13.40;;;4.78;;
72728;SDS011;60843;52.062;4.508;2022-07-01T05:29:13;13.13;;;4.43;;
72728;SDS011;60843;52.062;4.508;2022-07-01T05:31:38;10.23;;;4.22;;
72728;SDS011;60843;52.062;4.508;2022-07-01T05:34:04;18.20;;;5.95;;
72728;SDS011;60843;52.062;4.508;2022-07-01T05:36:29;11.48;;;5.13;;
72728;SDS011;60843;52.062;4.508;2022-07-01T05:38:55;11.23;;;4.38;;
72728;SDS011;60843;52.062;4.508;2022-07-01T05:41:20;11.57;;;5.30;;
72728;SDS011;60843;52.062;4.508;2022-07-01T05:43:46;10.32;;;4.45;;
72728;SDS011;60843;52.062;4.508;2022-07-01T05:46:11;16.02;;;4.20;;
72728;SDS011;60843;52.062;4.508;2022-07-01T05:48:36;8.88;;;4.15;;
72728;SDS011;60843;52.062;4.508;2022-07-01T05:51:02;15.55;;;4.50;;
72728;SDS011;60843;52.062;4.508;2022-07-01T05:53:28;11.55;;;4.30;;
72728;SDS011;60843;52.062;4.508;2022-07-01T05:55:53;9.98;;;4.63;;
72728;SDS011;60843;52.062;4.508;2022-07-01T05:58:19;13.82;;;3.75;;
72728;SDS011;60843;52.062;4.508;2022-07-01T06:00:44;6.45;;;3.58;;
72728;SDS011;60843;52.062;4.508;2022-07-01T06:03:10;9.45;;;3.88;;
72728;SDS011;60843;52.062;4.508;2022-07-01T06:05:37;11.82;;;3.92;;
72728;SDS011;60843;52.062;4.508;2022-07-01T06:08:02;13.27;;;4.25;;
72728;SDS011;60843;52.062;4.508;2022-07-01T06:10:28;13.50;;;2.88;;
72728;SDS011;60843;52.062;4.508;2022-07-01T06:12:54;8.85;;;4.38;;
72728;SDS011;60843;52.062;4.508;2022-07-01T06:15:19;6.80;;;2.87;;
72728;SDS011;60843;52.062;4.508;2022-07-01T06:17:45;9.80;;;3.28;;
72728;SDS011;60843;52.062;4.508;2022-07-01T06:20:10;13.85;;;2.83;;
72728;SDS011;60843;52.062;4.508;2022-07-01T06:22:35;9.70;;;3.38;;
72728;SDS011;60843;52.062;4.508;2022-07-01T06:25:02;8.07;;;3.15;;
72728;SDS011;60843;52.062;4.508;2022-07-01T06:27:28;11.77;;;2.60;;
72728;SDS011;60843;52.062;4.508;2022-07-01T06:29:53;8.55;;;2.60;;
72728;SDS011;60843;52.062;4.508;2022-07-01T06:32:19;10.32;;;3.17;;
72728;SDS011;60843;52.062;4.508;2022-07-01T06:37:17;11.98;;;3.03;;
72728;SDS011;60843;52.062;4.508;2022-07-01T06:39:45;8.55;;;2.88;;
72728;SDS011;60843;52.062;4.508;2022-07-01T06:42:10;10.48;;;2.97;;
72728;SDS011;60843;52.062;4.508;2022-07-01T06:44:36;10.45;;;2.35;;
72728;SDS011;60843;52.062;4.508;2022-07-01T06:47:01;8.18;;;2.80;;
72728;SDS011;60843;52.062;4.508;2022-07-01T06:49:27;6.45;;;2.05;;
72728;SDS011;60843;52.062;4.508;2022-07-01T06:51:52;12.70;;;2.43;;
72728;SDS011;60843;52.062;4.508;2022-07-01T06:54:17;10.70;;;2.25;;
72728;SDS011;60843;52.062;4.508;2022-07-01T06:56:43;6.70;;;2.75;;
72728;SDS011;60843;52.062;4.508;2022-07-01T06:59:09;8.00;;;2.40;;
72728;SDS011;60843;52.062;4.508;2022-07-01T07:01:34;12.38;;;2.63;;
72728;SDS011;60843;52.062;4.508;2022-07-01T07:03:59;8.80;;;2.87;;
72728;SDS011;60843;52.062;4.508;2022-07-01T07:06:25;9.50;;;2.10;;
72728;SDS011;60843;52.062;4.508;2022-07-01T07:08:50;10.63;;;2.63;;
72728;SDS011;60843;52.062;4.508;2022-07-01T07:11:16;7.97;;;2.70;;
72728;SDS011;60843;52.062;4.508;2022-07-01T07:13:43;8.38;;;2.83;;
72728;SDS011;60843;52.062;4.508;2022-07-01T07:16:08;8.50;;;2.70;;
72728;SDS011;60843;52.062;4.508;2022-07-01T07:18:34;6.82;;;2.40;;
72728;SDS011;60843;52.062;4.508;2022-07-01T07:20:59;7.68;;;1.95;;
72728;SDS011;60843;52.062;4.508;2022-07-01T07:23:25;6.90;;;2.20;;
72728;SDS011;60843;52.062;4.508;2022-07-01T07:25:50;7.43;;;2.47;;
72728;SDS011;60843;52.062;4.508;2022-07-01T07:28:16;7.15;;;1.92;;
72728;SDS011;60843;52.062;4.508;2022-07-01T07:30:41;7.60;;;2.40;;
72728;SDS011;60843;52.062;4.508;2022-07-01T07:33:06;8.95;;;2.28;;
72728;SDS011;60843;52.062;4.508;2022-07-01T07:35:32;8.35;;;2.15;;
72728;SDS011;60843;52.062;4.508;2022-07-01T07:37:58;4.53;;;1.52;;
72728;SDS011;60843;52.062;4.508;2022-07-01T07:40:23;6.03;;;1.70;;
72728;SDS011;60843;52.062;4.508;2022-07-01T07:42:49;7.03;;;1.88;;
72728;SDS011;60843;52.062;4.508;2022-07-01T07:45:15;8.75;;;1.40;;
72728;SDS011;60843;52.062;4.508;2022-07-01T07:47:47;7.78;;;1.70;;
72728;SDS011;60843;52.062;4.508;2022-07-01T07:50:13;9.57;;;1.38;;
72728;SDS011;60843;52.062;4.508;2022-07-01T07:52:39;9.02;;;1.67;;
72728;SDS011;60843;52.062;4.508;2022-07-01T07:55:07;6.63;;;1.60;;
72728;SDS011;60843;52.062;4.508;2022-07-01T07:57:35;4.88;;;1.30;;
72728;SDS011;60843;52.062;4.508;2022-07-01T08:00:01;5.57;;;1.40;;
72728;SDS011;60843;52.062;4.508;2022-07-01T08:02:26;6.18;;;1.25;;
72728;SDS011;60843;52.062;4.508;2022-07-01T08:04:51;7.90;;;1.50;;
72728;SDS011;60843;52.062;4.508;2022-07-01T08:07:17;5.25;;;1.30;;
72728;SDS011;60843;52.062;4.508;2022-07-01T08:09:42;6.50;;;1.40;;
72728;SDS011;60843;52.062;4.508;2022-07-01T08:12:11;7.57;;;1.63;;
72728;SDS011;60843;52.062;4.508;2022-07-01T08:14:36;5.05;;;1.25;;
72728;SDS011;60843;52.062;4.508;2022-07-01T08:17:02;6.97;;;1.40;;
72728;SDS011;60843;52.062;4.508;2022-07-01T08:19:27;2.47;;;1.10;;
72728;SDS011;60843;52.062;4.508;2022-07-01T08:21:53;5.38;;;1.08;;
72728;SDS011;60843;52.062;4.508;2022-07-01T08:24:18;3.92;;;0.93;;
72728;SDS011;60843;52.062;4.508;2022-07-01T08:26:44;2.85;;;1.00;;
72728;SDS011;60843;52.062;4.508;2022-07-01T08:29:09;6.50;;;0.90;;
72728;SDS011;60843;52.062;4.508;2022-07-01T08:31:34;9.30;;;1.15;;
72728;SDS011;60843;52.062;4.508;2022-07-01T08:34:03;5.28;;;1.23;;
72728;SDS011;60843;52.062;4.508;2022-07-01T08:36:28;5.70;;;1.00;;
72728;SDS011;60843;52.062;4.508;2022-07-01T08:38:54;8.50;;;1.40;;
72728;SDS011;60843;52.062;4.508;2022-07-01T08:41:19;4.47;;;1.20;;
72728;SDS011;60843;52.062;4.508;2022-07-01T08:43:45;6.38;;;1.40;;
72728;SDS011;60843;52.062;4.508;2022-07-01T08:46:11;7.65;;;1.23;;
72728;SDS011;60843;52.062;4.508;2022-07-01T08:48:37;6.93;;;1.30;;
72728;SDS011;60843;52.062;4.508;2022-07-01T08:51:07;4.93;;;0.98;;
72728;SDS011;60843;52.062;4.508;2022-07-01T08:53:32;6.13;;;1.15;;
72728;SDS011;60843;52.062;4.508;2022-07-01T08:55:59;6.18;;;1.08;;
72728;SDS011;60843;52.062;4.508;2022-07-01T08:58:43;5.30;;;0.95;;
72728;SDS011;60843;52.062;4.508;2022-07-01T09:03:46;6.00;;;1.63;;
72728;SDS011;60843;52.062;4.508;2022-07-01T09:06:14;7.07;;;1.30;;
72728;SDS011;60843;52.062;4.508;2022-07-01T09:08:41;5.50;;;1.20;;
72728;SDS011;60843;52.062;4.508;2022-07-01T09:11:11;7.28;;;1.40;;
72728;SDS011;60843;52.062;4.508;2022-07-01T09:13:37;5.78;;;1.63;;
72728;SDS011;60843;52.062;4.508;2022-07-01T09:16:10;14.13;;;1.40;;
72728;SDS011;60843;52.062;4.508;2022-07-01T09:18:37;6.63;;;1.15;;
72728;SDS011;60843;52.062;4.508;2022-07-01T09:21:02;7.93;;;1.83;;
72728;SDS011;60843;52.062;4.508;2022-07-01T09:23:32;7.57;;;1.27;;
72728;SDS011;60843;52.062;4.508;2022-07-01T09:25:58;7.38;;;1.40;;
72728;SDS011;60843;52.062;4.508;2022-07-01T09:28:24;6.97;;;1.33;;
72728;SDS011;60843;52.062;4.508;2022-07-01T09:30:53;3.08;;;0.88;;
72728;SDS011;60843;52.062;4.508;2022-07-01T09:33:21;7.50;;;1.30;;
72728;SDS011;60843;52.062;4.508;2022-07-01T09:35:48;4.45;;;1.10;;
72728;SDS011;60843;52.062;4.508;2022-07-01T09:38:15;6.30;;;1.23;;
72728;SDS011;60843;52.062;4.508;2022-07-01T09:40:52;4.60;;;0.85;;
72728;SDS011;60843;52.062;4.508;2022-07-01T09:43:26;3.85;;;1.13;;
72728;SDS011;60843;52.062;4.508;2022-07-01T09:46:06;5.78;;;1.02;;
72728;SDS011;60843;52.062;4.508;2022-07-01T09:50:58;2.03;;;0.97;;
72728;SDS011;60843;52.062;4.508;2022-07-01T09:53:24;7.38;;;1.10;;
72728;SDS011;60843;52.062;4.508;2022-07-01T09:55:49;4.13;;;0.90;;
72728;SDS011;60843;52.062;4.508;2022-07-01T09:58:15;3.33;;;0.80;;
72728;SDS011;60843;52.062;4.508;2022-07-01T10:00:41;3.38;;;1.00;;
72728;SDS011;60843;52.062;4.508;2022-07-01T10:03:06;3.35;;;1.05;;
72728;SDS011;60843;52.062;4.508;2022-07-01T10:05:41;4.38;;;0.90;;
72728;SDS011;60843;52.062;4.508;2022-07-01T10:13:39;3.95;;;1.00;;
72728;SDS011;60843;52.062;4.508;2022-07-01T10:16:07;5.85;;;1.00;;
72728;SDS011;60843;52.062;4.508;2022-07-01T10:18:33;5.00;;;1.40;;
72728;SDS011;60843;52.062;4.508;2022-07-01T10:20:59;4.53;;;1.58;;
72728;SDS011;60843;52.062;4.508;2022-07-01T10:23:27;7.82;;;1.10;;
72728;SDS011;60843;52.062;4.508;2022-07-01T10:26:04;6.78;;;1.40;;
72728;SDS011;60843;52.062;4.508;2022-07-01T10:31:08;7.70;;;1.27;;
72728;SDS011;60843;52.062;4.508;2022-07-01T10:39:07;5.05;;;1.35;;
72728;SDS011;60843;52.062;4.508;2022-07-01T10:41:32;4.30;;;1.30;;
72728;SDS011;60843;52.062;4.508;2022-07-01T10:44:01;7.18;;;1.10;;
72728;SDS011;60843;52.062;4.508;2022-07-01T10:51:44;6.95;;;1.38;;
72728;SDS011;60843;52.062;4.508;2022-07-01T10:54:10;6.00;;;1.20;;
72728;SDS011;60843;52.062;4.508;2022-07-01T10:56:39;4.40;;;1.07;;
72728;SDS011;60843;52.062;4.508;2022-07-01T10:59:05;6.15;;;1.20;;
72728;SDS011;60843;52.062;4.508;2022-07-01T11:01:31;3.50;;;0.75;;
72728;SDS011;60843;52.062;4.508;2022-07-01T11:03:57;8.13;;;1.23;;
72728;SDS011;60843;52.062;4.508;2022-07-01T11:06:24;6.35;;;0.98;;
72728;SDS011;60843;52.062;4.508;2022-07-01T11:08:49;4.50;;;1.25;;
72728;SDS011;60843;52.062;4.508;2022-07-01T11:11:15;4.18;;;1.23;;
72728;SDS011;60843;52.062;4.508;2022-07-01T11:13:40;2.88;;;1.08;;
72728;SDS011;60843;52.062;4.508;2022-07-01T11:16:06;2.55;;;0.95;;
72728;SDS011;60843;52.062;4.508;2022-07-01T11:18:31;11.05;;;1.10;;
72728;SDS011;60843;52.062;4.508;2022-07-01T11:21:07;6.70;;;1.20;;
72728;SDS011;60843;52.062;4.508;2022-07-01T11:23:33;5.97;;;1.10;;
72728;SDS011;60843;52.062;4.508;2022-07-01T11:25:59;6.07;;;1.95;;
72728;SDS011;60843;52.062;4.508;2022-07-01T11:28:24;4.50;;;1.45;;
72728;SDS011;60843;52.062;4.508;2022-07-01T11:30:57;6.95;;;1.33;;
72728;SDS011;60843;52.062;4.508;2022-07-01T11:35:50;8.93;;;2.30;;
72728;SDS011;60843;52.062;4.508;2022-07-01T11:38:44;7.22;;;1.92;;
72728;SDS011;60843;52.062;4.508;2022-07-01T11:41:29;5.95;;;1.90;;
72728;SDS011;60843;52.062;4.508;2022-07-01T11:43:54;5.13;;;1.83;;
72728;SDS011;60843;52.062;4.508;2022-07-01T11:46:20;8.70;;;2.25;;
72728;SDS011;60843;52.062;4.508;2022-07-01T11:48:47;7.55;;;2.55;;
72728;SDS011;60843;52.062;4.508;2022-07-01T11:51:16;7.40;;;1.70;;
72728;SDS011;60843;52.062;4.508;2022-07-01T11:53:44;5.70;;;1.65;;
72728;SDS011;60843;52.062;4.508;2022-07-01T11:56:14;5.70;;;2.17;;
72728;SDS011;60843;52.062;4.508;2022-07-01T11:58:44;4.80;;;1.80;;
72728;SDS011;60843;52.062;4.508;2022-07-01T12:01:10;8.20;;;2.15;;
72728;SDS011;60843;52.062;4.508;2022-07-01T12:03:37;9.77;;;2.00;;
72728;SDS011;60843;52.062;4.508;2022-07-01T12:06:03;3.78;;;1.50;;
72728;SDS011;60843;52.062;4.508;2022-07-01T12:08:29;3.60;;;1.10;;
72728;SDS011;60843;52.062;4.508;2022-07-01T12:10:55;7.13;;;1.60;;
72728;SDS011;60843;52.062;4.508;2022-07-01T12:13:24;3.25;;;0.90;;
72728;SDS011;60843;52.062;4.508;2022-07-01T12:15:50;3.80;;;0.98;;
72728;SDS011;60843;52.062;4.508;2022-07-01T12:18:16;6.10;;;1.50;;
72728;SDS011;60843;52.062;4.508;2022-07-01T12:20:49;4.65;;;1.33;;
72728;SDS011;60843;52.062;4.508;2022-07-01T12:23:16;3.92;;;1.20;;
72728;SDS011;60843;52.062;4.508;2022-07-01T12:25:45;7.40;;;1.30;;
72728;SDS011;60843;52.062;4.508;2022-07-01T12:31:07;2.85;;;0.80;;
72728;SDS011;60843;52.062;4.508;2022-07-01T12:33:34;4.30;;;1.40;;
72728;SDS011;60843;52.062;4.508;2022-07-01T12:36:02;2.97;;;1.15;;
72728;SDS011;60843;52.062;4.508;2022-07-01T12:38:28;5.18;;;0.90;;
72728;SDS011;60843;52.062;4.508;2022-07-01T12:40:54;2.33;;;0.80;;
72728;SDS011;60843;52.062;4.508;2022-07-01T12:43:27;3.40;;;0.90;;
72728;SDS011;60843;52.062;4.508;2022-07-01T12:45:55;2.88;;;0.85;;
72728;SDS011;60843;52.062;4.508;2022-07-01T12:48:22;6.22;;;1.20;;
72728;SDS011;60843;52.062;4.508;2022-07-01T12:50:48;3.42;;;0.90;;
72728;SDS011;60843;52.062;4.508;2022-07-01T12:53:20;4.57;;;1.42;;
72728;SDS011;60843;52.062;4.508;2022-07-01T12:55:47;5.88;;;1.48;;
72728;SDS011;60843;52.062;4.508;2022-07-01T12:58:35;5.50;;;1.20;;
72728;SDS011;60843;52.062;4.508;2022-07-01T13:01:03;2.80;;;1.10;;
72728;SDS011;60843;52.062;4.508;2022-07-01T13:03:31;4.57;;;2.03;;
72728;SDS011;60843;52.062;4.508;2022-07-01T13:05:57;3.38;;;1.55;;
72728;SDS011;60843;52.062;4.508;2022-07-01T13:08:22;3.83;;;2.08;;
72728;SDS011;60843;52.062;4.508;2022-07-01T13:10:51;9.73;;;2.50;;
72728;SDS011;60843;52.062;4.508;2022-07-01T13:13:24;5.80;;;1.40;;
72728;SDS011;60843;52.062;4.508;2022-07-01T13:15:52;6.63;;;1.70;;
72728;SDS011;60843;52.062;4.508;2022-07-01T13:18:25;4.63;;;1.52;;
72728;SDS011;60843;52.062;4.508;2022-07-01T13:20:50;3.23;;;1.80;;
72728;SDS011;60843;52.062;4.508;2022-07-01T13:23:16;5.13;;;2.20;;
72728;SDS011;60843;52.062;4.508;2022-07-01T13:25:41;7.40;;;1.48;;
72728;SDS011;60843;52.062;4.508;2022-07-01T13:28:08;3.75;;;1.70;;
72728;SDS011;60843;52.062;4.508;2022-07-01T13:30:34;4.63;;;2.10;;
72728;SDS011;60843;52.062;4.508;2022-07-01T13:33:03;4.75;;;1.70;;
72728;SDS011;60843;52.062;4.508;2022-07-01T13:35:29;4.68;;;1.67;;
72728;SDS011;60843;52.062;4.508;2022-07-01T13:37:54;4.38;;;1.67;;
72728;SDS011;60843;52.062;4.508;2022-07-01T13:40:20;6.30;;;1.60;;
72728;SDS011;60843;52.062;4.508;2022-07-01T13:42:46;4.10;;;1.52;;
72728;SDS011;60843;52.062;4.508;2022-07-01T13:45:12;5.65;;;1.48;;
72728;SDS011;60843;52.062;4.508;2022-07-01T13:47:38;8.80;;;1.50;;
72728;SDS011;60843;52.062;4.508;2022-07-01T13:50:04;6.38;;;1.30;;
72728;SDS011;60843;52.062;4.508;2022-07-01T13:52:30;6.20;;;1.33;;
72728;SDS011;60843;52.062;4.508;2022-07-01T13:54:56;5.63;;;1.52;;
72728;SDS011;60843;52.062;4.508;2022-07-01T13:57:22;6.43;;;1.40;;
72728;SDS011;60843;52.062;4.508;2022-07-01T13:59:48;5.93;;;1.83;;
72728;SDS011;60843;52.062;4.508;2022-07-01T14:02:14;5.40;;;1.57;;
72728;SDS011;60843;52.062;4.508;2022-07-01T14:04:39;3.92;;;1.10;;
72728;SDS011;60843;52.062;4.508;2022-07-01T14:07:05;7.80;;;1.60;;
72728;SDS011;60843;52.062;4.508;2022-07-01T14:09:31;5.30;;;1.10;;
72728;SDS011;60843;52.062;4.508;2022-07-01T14:11:59;4.45;;;1.25;;
72728;SDS011;60843;52.062;4.508;2022-07-01T14:14:24;5.60;;;1.38;;
72728;SDS011;60843;52.062;4.508;2022-07-01T14:16:50;3.72;;;1.23;;
72728;SDS011;60843;52.062;4.508;2022-07-01T14:19:16;8.57;;;1.20;;
72728;SDS011;60843;52.062;4.508;2022-07-01T14:21:41;4.63;;;1.40;;
72728;SDS011;60843;52.062;4.508;2022-07-01T14:24:07;4.00;;;0.93;;
72728;SDS011;60843;52.062;4.508;2022-07-01T14:26:32;2.42;;;0.82;;
72728;SDS011;60843;52.062;4.508;2022-07-01T14:28:58;3.25;;;0.80;;
72728;SDS011;60843;52.062;4.508;2022-07-01T14:31:23;4.65;;;0.82;;
72728;SDS011;60843;52.062;4.508;2022-07-01T14:33:49;2.33;;;0.80;;
72728;SDS011;60843;52.062;4.508;2022-07-01T14:36:14;3.45;;;0.70;;
72728;SDS011;60843;52.062;4.508;2022-07-01T14:38:39;3.78;;;1.17;;
72728;SDS011;60843;52.062;4.508;2022-07-01T14:41:05;3.30;;;0.60;;
72728;SDS011;60843;52.062;4.508;2022-07-01T14:43:30;5.00;;;1.05;;
72728;SDS011;60843;52.062;4.508;2022-07-01T14:45:56;3.33;;;1.10;;
72728;SDS011;60843;52.062;4.508;2022-07-01T14:48:22;1.23;;;0.43;;
72728;SDS011;60843;52.062;4.508;2022-07-01T14:50:47;2.25;;;0.50;;
72728;SDS011;60843;52.062;4.508;2022-07-01T14:53:12;3.10;;;0.68;;
72728;SDS011;60843;52.062;4.508;2022-07-01T14:55:38;2.67;;;0.93;;
72728;SDS011;60843;52.062;4.508;2022-07-01T14:58:03;3.47;;;0.73;;
72728;SDS011;60843;52.062;4.508;2022-07-01T15:00:29;2.23;;;0.50;;
72728;SDS011;60843;52.062;4.508;2022-07-01T15:02:55;3.97;;;0.60;;
72728;SDS011;60843;52.062;4.508;2022-07-01T15:05:23;3.50;;;0.68;;
72728;SDS011;60843;52.062;4.508;2022-07-01T15:07:49;4.18;;;0.80;;
72728;SDS011;60843;52.062;4.508;2022-07-01T15:10:15;3.25;;;0.93;;
72728;SDS011;60843;52.062;4.508;2022-07-01T15:12:40;4.63;;;0.50;;
72728;SDS011;60843;52.062;4.508;2022-07-01T15:15:06;4.55;;;0.77;;
72728;SDS011;60843;52.062;4.508;2022-07-01T15:17:32;1.98;;;0.65;;